Flight Track Log - Related Links

Times and Time Zones

All times are in EDT time to prevent confusion due to time zone crossing. See the AAL1305 flight status page for this flight to view local times or setup timezone preferences in your user account.

Time Position Orientation Groundspeed Altitude Reporting Facility
EDT Latitude Longitude Course Direction KTS MPH feet Rate Location/Type
Thu 02:06:55 PM 26.7381 -79.9969 332° Northwest 256 295 3,200  Level Miami Center
Thu 02:07:55 PM 26.8067 -80.0150 347° North 272 313 5,600 2,800 Climbing Miami Center
Thu 02:08:00 PM 26.8322 -80.2055 276° West  Level FlightAware Approximate
Thu 02:08:55 PM 26.8297 -80.1064 286° West 240 276 8,800  Level Miami Center
Thu 02:09:00 PM 26.8500 -80.3134 270° West  Level FlightAware Approximate
Thu 02:09:55 PM 26.8422 -80.1931 279° West 261 300 10,800  Level Miami Center
Thu 02:10:00 PM 26.9397 -80.3602 338° Northwest  Level FlightAware Approximate
Thu 02:10:55 PM 26.8608 -80.2983 281° West 315 362 12,700  Level Miami Center
Thu 02:11:00 PM 27.0333 -80.4018 338° Northwest  Level FlightAware Approximate
Thu 02:11:55 PM 26.9239 -80.3675 316° Northwest 348 400 15,400  Level Miami Center
Thu 02:12:00 PM 27.1239 -80.4510 332° Northwest  Level FlightAware Approximate
Thu 02:12:55 PM 26.9992 -80.4469 317° Northwest 359 413 17,900  Level Miami Center
Thu 02:13:55 PM 27.0803 -80.5356 316° Northwest 370 426 21,200 2,600 Climbing Miami Center
Thu 02:14:55 PM 27.1556 -80.6150 317° Northwest 370 426 23,100 1,800 Climbing Miami Center
Thu 02:15:55 PM 27.2328 -80.6969 317° Northwest 370 426 24,800 1,700 Climbing Miami Center
Thu 02:16:55 PM 27.3161 -80.7839 317° Northwest 393 452 26,500 1,650 Climbing Miami Center
Thu 02:17:55 PM 27.4014 -80.8708 318° Northwest 399 459 28,100 1,650 Climbing Miami Center
Thu 02:18:55 PM 27.4803 -80.9603 315° West 399 459 29,800 950 Climbing Miami Center
Thu 02:19:55 PM 27.5614 -81.0475 316° Northwest 399 459 30,000 100 Climbing Miami Center
Thu 02:20:55 PM 27.6175 -81.1269 309° West 399 459 30,000  Level Miami Center
Thu 02:21:55 PM 27.6786 -81.2464 300° West 404 465 30,000  Level Miami Center
Thu 02:22:55 PM 27.7356 -81.3564 300° West 404 465 30,000  Level Miami Center
Thu 02:23:55 PM 27.7986 -81.4764 301° West 409 471 30,000 -50 Level Miami Center
Thu 02:24:55 PM 27.8706 -81.5778 309° West 409 471 29,900 -50 Descending Miami Center
Thu 02:25:55 PM 27.9594 -81.6639 319° Northwest 409 471 29,900 704 Level Miami Center
Thu 02:28:11 PM 28.1436 -81.8522 318° Northwest 409 471 32,200 1,255 Climbing Jacksonville Center
Thu 02:29:11 PM 28.2256 -81.9339 319° Northwest 404 465 34,000 900 Climbing Jacksonville Center
Thu 02:30:11 PM 28.3158 -82.0014 327° Northwest 391 450 34,000  Level Jacksonville Center
Thu 02:31:11 PM 28.4144 -82.0642 331° Northwest 391 450 34,000  Level Jacksonville Center
Thu 02:32:11 PM 28.5128 -82.1247 332° Northwest 401 461 34,000  Level Jacksonville Center
Thu 02:33:11 PM 28.5947 -82.2069 319° Northwest 396 456 34,000 -50 Level Jacksonville Center
Thu 02:34:11 PM 28.6744 -82.2939 316° Northwest 396 456 33,900  Descending Jacksonville Center
Thu 02:35:11 PM 28.7603 -82.3858 317° Northwest 384 442 34,000 50 Climbing Jacksonville Center
Thu 02:36:11 PM 28.8422 -82.4753 316° Northwest 384 442 34,000  Level Jacksonville Center
Thu 02:37:11 PM 28.9239 -82.5653 316° Northwest 394 453 34,000  Level Jacksonville Center
Thu 02:38:11 PM 29.0075 -82.6550 317° Northwest 399 459 34,000  Level Jacksonville Center
Thu 02:39:11 PM 29.0911 -82.7453 317° Northwest 404 465 34,000  Level Jacksonville Center
Thu 02:40:11 PM 29.1706 -82.8356 315° West 404 465 34,000  Level Jacksonville Center
Thu 02:41:11 PM 29.2519 -82.9236 317° Northwest 404 465 34,000 -50 Level Jacksonville Center
Thu 02:42:11 PM 29.3333 -83.0142 316° Northwest 404 465 33,900  Descending Jacksonville Center
Thu 02:43:11 PM 29.4144 -83.1025 317° Northwest 404 465 34,000  Climbing Jacksonville Center
Thu 02:44:11 PM 29.4853 -83.1836 315° West 404 465 33,900 -50 Descending Jacksonville Center
Thu 02:45:11 PM 29.5686 -83.2722 317° Northwest 412 474 33,900  Level Jacksonville Center
Thu 02:46:11 PM 29.6478 -83.3633 315° West 405 466 33,900  Level Jacksonville Center
Thu 02:47:11 PM 29.7286 -83.4497 317° Northwest 405 466 33,900  Level Jacksonville Center
Thu 02:48:11 PM 29.8097 -83.5364 317° Northwest 405 466 33,900  Level Jacksonville Center
Thu 02:49:11 PM 29.8739 -83.6375 306° West 399 459 33,900 50 Level Jacksonville Center
Thu 02:50:11 PM 29.9150 -83.7481 293° West 385 443 34,000 50 Climbing Jacksonville Center
Thu 02:51:11 PM 29.9600 -83.8586 295° West 380 437 34,000  Level Jacksonville Center
Thu 02:52:11 PM 30.0011 -83.9694 293° West 380 437 34,000 -50 Level Jacksonville Center
Thu 02:53:11 PM 30.0439 -84.0756 295° West 380 437 33,900  Descending Jacksonville Center
Thu 02:54:11 PM 30.0825 -84.1792 293° West 374 430 34,000 50 Climbing Jacksonville Center
Thu 02:55:11 PM 30.1231 -84.2878 293° West 374 430 34,000  Level Jacksonville Center
Thu 02:56:11 PM 30.1658 -84.3967 294° West 369 425 34,000  Level Jacksonville Center
Thu 02:57:11 PM 30.2042 -84.5028 293° West 369 425 34,000  Level Jacksonville Center
Thu 02:58:11 PM 30.2486 -84.6142 295° West 369 425 34,000  Level Jacksonville Center
Thu 02:59:11 PM 30.2889 -84.7208 294° West 369 425 34,000  Level Jacksonville Center
Thu 03:00:11 PM 30.3292 -84.8275 294° West 369 425 34,000 -50 Level Jacksonville Center
Thu 03:01:11 PM 30.3692 -84.9342 294° West 369 425 33,900 -50 Descending Jacksonville Center
Thu 03:02:11 PM 30.4092 -85.0411 293° West 369 425 33,900 50 Level Jacksonville Center
Thu 03:03:11 PM 30.4511 -85.1481 294° West 369 425 34,000 50 Climbing Jacksonville Center
Thu 03:04:11 PM 30.4908 -85.2575 293° West 369 425 34,000 -50 Level Jacksonville Center
Thu 03:05:11 PM 30.5328 -85.3644 295° West 369 425 33,900  Descending Jacksonville Center
Thu 03:06:11 PM 30.5725 -85.4717 293° West 364 419 34,000 50 Climbing Jacksonville Center
Thu 03:07:11 PM 30.6139 -85.5814 294° West 364 419 34,000  Level Jacksonville Center
Thu 03:08:11 PM 30.6511 -85.6911 292° West 364 419 34,000  Level Jacksonville Center
Thu 03:09:11 PM 30.6925 -85.8011 294° West 364 419 34,000  Level Jacksonville Center
Thu 03:10:11 PM 30.7339 -85.9111 294° West 369 425 34,000  Level Jacksonville Center
Thu 03:11:11 PM 30.7750 -86.0236 293° West 369 425 34,000 -50 Level Jacksonville Center
Thu 03:12:11 PM 30.8119 -86.1361 291° West 376 433 33,900  Descending Jacksonville Center
Thu 03:13:11 PM 30.8192 -86.2525 274° West 371 427 34,000  Climbing Jacksonville Center
Thu 03:14:11 PM 30.8181 -86.3708 269° West 366 421 33,900 -50 Descending Jacksonville Center
Thu 03:15:11 PM 30.8228 -86.5017 272° West 375 432 33,900 50 Level Jacksonville Center
Thu 03:16:11 PM 30.8217 -86.6203 269° West 375 432 34,000 50 Climbing Jacksonville Center
Thu 03:17:11 PM 30.8353 -86.7247 279° West 370 426 34,000  Level Jacksonville Center
Thu 03:18:11 PM 30.8525 -86.8392 280° West 364 419 34,000  Level Jacksonville Center
Thu 03:19:11 PM 30.8697 -86.9536 280° West 370 426 34,000  Level Jacksonville Center
Thu 03:20:11 PM 30.8847 -87.0703 279° West 370 426 34,000  Level Jacksonville Center
Thu 03:21:11 PM 30.9017 -87.1872 280° West 370 426 34,000  Level Jacksonville Center
Thu 03:23:06 PM 30.9325 -87.4186 279° West 366 421 34,000  Level Houston Center
Thu 03:24:08 PM 30.9489 -87.5369 279° West 369 425 34,000  Level Houston Center
Thu 03:25:10 PM 30.9667 -87.6558 280° West 371 427 34,000 -48 Level Houston Center
Thu 03:26:12 PM 30.9850 -87.7850 279° West 376 433 33,900 -48 Descending Houston Center
Thu 03:27:15 PM 31.0017 -87.9056 279° West 376 433 33,900 48 Level Houston Center
Thu 03:28:17 PM 31.0183 -88.0244 279° West 376 433 34,000 48 Climbing Houston Center
Thu 03:29:19 PM 31.0386 -88.1697 279° West 377 434 34,000  Level Houston Center
Thu 03:30:21 PM 31.0539 -88.2922 278° West 380 437 34,000  Level Houston Center
Thu 03:31:23 PM 31.0708 -88.4153 279° West 385 443 34,000  Level Houston Center
Thu 03:32:26 PM 31.0878 -88.5386 279° West 385 443 34,000  Level Houston Center
Thu 03:33:28 PM 31.1044 -88.6672 279° West 387 445 34,000  Level Houston Center
Thu 03:34:30 PM 31.1208 -88.7919 279° West 388 447 34,000  Level Houston Center
Thu 03:35:32 PM 31.1397 -88.9339 279° West 388 447 34,000  Level Houston Center
Thu 03:36:34 PM 31.1550 -89.0567 278° West 386 444 34,000 -48 Level Houston Center
Thu 03:37:37 PM 31.1711 -89.1803 279° West 387 445 33,900 -48 Descending Houston Center
Thu 03:38:39 PM 31.1875 -89.3042 279° West 388 447 33,900 48 Level Houston Center
Thu 03:39:42 PM 31.2053 -89.4506 278° West 383 441 34,000  Climbing Houston Center
Thu 03:40:43 PM 31.2206 -89.5725 278° West 382 440 33,900  Descending Houston Center
Thu 03:41:45 PM 31.2358 -89.6958 278° West 384 442 34,000  Climbing Houston Center
Thu 03:42:48 PM 31.2522 -89.8192 279° West 385 443 33,900  Descending Houston Center
Thu 03:43:50 PM 31.2669 -89.9433 278° West 385 443 34,000  Climbing Houston Center
Thu 03:44:52 PM 31.2839 -90.0936 278° West 388 447 33,900  Descending Houston Center
Thu 03:45:54 PM 31.3003 -90.2181 279° West 388 447 34,000  Climbing Houston Center
Thu 03:46:56 PM 31.3036 -90.3436 272° West 389 448 33,900  Descending Houston Center
Thu 03:47:59 PM 31.3006 -90.4689 268° West 388 447 34,000 48 Climbing Houston Center
Thu 03:49:01 PM 31.3006 -90.5936 270° West 388 447 34,000  Level Houston Center
Thu 03:50:03 PM 31.2967 -90.7425 268° West 386 444 34,000  Level Houston Center
Thu 03:51:05 PM 31.2958 -90.8678 270° West 386 444 34,000  Level Houston Center
Thu 03:52:07 PM 31.2942 -90.9928 269° West 386 444 34,000  Level Houston Center
Thu 03:53:10 PM 31.2914 -91.1181 269° West 389 448 34,000  Level Houston Center
Thu 03:54:12 PM 31.2875 -91.2447 268° West 390 449 34,000  Level Houston Center
Thu 03:55:14 PM 31.2833 -91.3958 268° West 390 449 34,000  Level Houston Center
Thu 03:56:16 PM 31.2817 -91.5222 269° West 389 448 34,000  Level Houston Center
Thu 03:57:18 PM 31.2781 -91.6472 268° West 389 448 34,000  Level Houston Center
Thu 03:58:54 PM 31.2753 -91.8456 269° West 386 444 34,000  Level Fort Worth Center
Thu 03:59:56 PM 31.2711 -91.9700 268° West 386 444 34,000  Level Fort Worth Center
Thu 04:01:27 PM 31.2650 -92.1642 268° West 384 442 34,000  Level Houston Center
Thu 04:02:29 PM 31.2617 -92.2889 268° West 384 442 34,000 -48 Level Houston Center
Thu 04:03:31 PM 31.2592 -92.4136 269° West 384 442 33,900  Descending Houston Center
Thu 04:04:34 PM 31.2547 -92.5383 268° West 385 443 34,000 48 Climbing Houston Center
Thu 04:05:36 PM 31.2503 -92.6881 268° West 385 443 34,000  Level Houston Center
Thu 04:06:38 PM 31.2458 -92.8117 268° West 385 443 34,000 -48 Level Houston Center
Thu 04:07:40 PM 31.2414 -92.9347 268° West 383 441 33,900  Descending Houston Center
Thu 04:08:42 PM 31.2361 -93.0578 267° West 383 441 34,000 48 Climbing Houston Center
Thu 04:09:44 PM 31.2314 -93.1817 267° West 383 441 34,000 -48 Level Houston Center
Thu 04:10:47 PM 31.2253 -93.3308 267° West 384 442 33,900  Descending Houston Center
Thu 04:11:49 PM 31.2208 -93.4550 268° West 384 442 34,000  Climbing Houston Center
Thu 04:12:51 PM 31.2147 -93.5781 267° West 384 442 33,900 -48 Descending Houston Center
Thu 04:13:53 PM 31.2061 -93.7017 265° West 384 442 33,900 48 Level Houston Center
Thu 04:14:55 PM 31.1781 -93.8197 255° West 381 438 34,000 48 Climbing Houston Center
Thu 04:15:58 PM 31.1456 -93.9542 254° West 382 440 34,000  Level Houston Center
Thu 04:17:00 PM 31.1131 -94.0719 252° West 382 440 34,000  Level Houston Center
Thu 04:18:02 PM 31.0797 -94.1906 252° West 382 440 34,000  Level Houston Center
Thu 04:19:04 PM 31.0492 -94.3103 253° West 382 440 34,000  Level Houston Center
Thu 04:20:06 PM 31.0875 -94.4517 288° West 398 458 34,000  Level Houston Center
Thu 04:21:08 PM 31.1525 -94.5542 307° West 396 456 34,000  Level Houston Center
Thu 04:22:11 PM 31.2211 -94.6614 307° West 396 456 34,000 -48 Level Houston Center
Thu 04:23:13 PM 31.2883 -94.7622 308° West 396 456 33,900  Descending Houston Center
Thu 04:24:15 PM 31.3564 -94.8769 305° West 396 456 34,000 48 Climbing Houston Center
Thu 04:25:17 PM 31.4206 -94.9789 306° West 393 452 34,000 -242 Level Houston Center
Thu 04:26:19 PM 31.4819 -95.0825 305° West 390 449 33,500 -672 Descending Houston Center
Thu 04:27:22 PM 31.5256 -95.1958 294° West 383 441 32,600 -912 Descending Houston Center
Thu 04:28:24 PM 31.5772 -95.3075 299° West 386 444 31,600 -1,016 Descending Houston Center
Thu 04:29:26 PM 31.6564 -95.4322 307° West 396 456 30,500 -968 Descending Houston Center
Thu 04:29:57 PM 31.6842 -95.4750 307° West 399 459 30,100 -903 Descending Fort Worth Center
Thu 04:30:59 PM 31.7544 -95.5789 309° West 402 463 29,100 -532 Descending Fort Worth Center
Thu 04:32:01 PM 31.8258 -95.6831 309° West 408 470 29,000 -48 Descending Fort Worth Center
Thu 04:33:03 PM 31.9089 -95.8044 309° West 399 459 29,000 -48 Level Fort Worth Center
Thu 04:34:05 PM 31.9767 -95.8958 311° West 398 458 28,900 -1,065 Descending Fort Worth Center
Thu 04:35:07 PM 32.0483 -95.9961 310° West 398 458 26,800 -2,256 Descending Fort Worth Center
Thu 04:36:10 PM 32.1189 -96.0903 312° West 386 444 24,200 -2,688 Descending Fort Worth Center
Thu 04:37:12 PM 32.1969 -96.1978 311° West 362 417 21,200 -2,516 Descending Fort Worth Center
Thu 04:38:14 PM 32.2644 -96.2867 312° West 350 403 19,000 -2,177 Descending Fort Worth Center
Thu 04:39:16 PM 32.3239 -96.3683 311° West 330 380 16,700 -1,935 Descending Fort Worth Center
Thu 04:40:18 PM 32.3886 -96.4586 310° West 331 381 15,000 -1,452 Descending Fort Worth Center
Thu 04:41:20 PM 32.4500 -96.5319 315° West 320 368 13,700 -1,355 Descending Fort Worth Center
Thu 04:42:22 PM 32.5197 -96.6125 316° Northwest 322 371 12,200 -1,306 Descending Fort Worth Center
Thu 04:43:24 PM 32.5819 -96.6878 314° West 321 369 11,000 -581 Descending Fort Worth Center
Thu 04:44:26 PM 32.6469 -96.7644 315° West 326 375 11,000  Level Fort Worth Center
Thu 04:45:28 PM 32.7125 -96.8436 315° West 313 360 11,000  Level Fort Worth Center
Thu 04:46:30 PM 32.7806 -96.9033 324° Northwest 313 360 11,000 -144 Level Fort Worth Center
Thu 04:47:33 PM 32.8667 -96.9042 360° North 289 333 10,700 -912 Descending Fort Worth Center
Thu 04:48:35 PM 32.9378 -96.9053 359° North 261 300 9,100 -1,403 Descending Fort Worth Center
Thu 04:49:37 PM 33.0050 -96.9097 357° North 245 282 7,800 -1,597 Descending Fort Worth Center
Thu 04:50:39 PM 33.0567 -96.9444 331° Northwest 201 231 5,800 -2,032 Descending Fort Worth Center
Thu 04:51:41 PM 33.0525 -96.9997 265° West 175 201 3,600 -1,548 Descending Fort Worth Center
Thu 04:52:43 PM 33.0067 -97.0103 191° South 158 182 2,600 -871 Descending Fort Worth Center
Thu 04:53:45 PM 32.9625 -97.0097 179° South 158 182 1,800 -726 Descending Fort Worth Center
Thu 04:54:47 PM 32.9256 -97.0111 182° South 137 158 1,100 -576 Descending Fort Worth Center
Thu 04:55:50 PM 32.8864 -97.0094 178° South 135 155 600 -476 Descending Fort Worth Center

Login

Don't have an account? Register now (free) for customized features, flight alerts, and more!